Latest Weather Observations for Richmond

IDQ60801

Issued at 12:02 am EST Thursday 30 June 2016 (issued every 30 minutes, with the page automatically refreshed every 10 minutes)

About weather observations | Map of weather stations | Latest weather observations for QLD | Other Formats
Station Details ID: 030161 Name: RICHMOND AIRPORT Lat: -20.70 Lon: 143.12 Height: 206.3 m
Data from the previous 72 hours. | See also: Recent months at Richmond
Date/Time
EST
Temp
°C
App
Temp
°C
Dew
Point
°C
Rel
Hum
%
Delta-T
°C
Wind Press
QNH
hPa
Press
MSL
hPa
Rain since
9am
mm
Dir  Spd
km/h
Gust
km/h
Spd
kts
Gust
kts
29/11:30pm 11.9 7.1 -2.3 37 5.6 E 13 17 7 9 1019.8 1019.3 0.0
29/11:00pm 12.9 7.3 -2.6 34 6.1 ESE 17 24 9 13 1020.0 1019.5 0.0
29/10:30pm 13.9 8.0 -2.5 32 6.6 ESE 19 24 10 13 1020.1 1019.6 0.0
29/10:00pm 13.4 7.5 -2.5 33 6.3 SE 19 22 10 12 1020.1 1019.6 0.0
29/09:30pm 14.5 8.4 -2.4 31 6.8 SE 20 24 11 13 1020.2 1019.7 0.0
29/09:00pm 15.4 9.3 -2.5 29 7.2 ESE 20 28 11 15 1020.2 1019.7 0.0
29/08:30pm 16.7 10.2 -2.4 27 7.9 ESE 22 28 12 15 1019.9 1019.4 0.0
29/08:00pm 13.9 8.7 -2.5 32 6.5 SE 15 20 8 11 1019.7 1019.2 0.0
29/07:30pm 15.8 10.2 -3.1 27 7.6 SE 17 19 9 10 1019.2 1018.7 0.0
29/07:00pm 16.5 10.5 -3.0 26 7.9 SE 19 20 10 11 1018.9 1018.4 0.0
29/06:30pm 17.2 11.5 -3.5 24 8.4 SE 17 19 9 10 1018.7 1018.2 0.0
29/06:00pm 20.3 15.0 -3.4 20 9.9 ESE 15 17 8 9 1018.7 1018.2 0.0
29/05:30pm 23.4 17.3 -3.8 16 11.6 SE 19 24 10 13 1018.6 1018.1 0.0
29/05:00pm 24.6 19.0 -2.9 16 12.0 ESE 17 20 9 11 1018.5 1018.0 0.0
29/04:30pm 25.1 20.2 -3.3 15 12.4 E 13 17 7 9 1018.1 1017.6 0.0
29/04:00pm 25.1 20.2 -3.3 15 12.4 ESE 13 19 7 10 1018.1 1017.6 0.0
29/03:30pm 25.3 20.2 -2.3 16 12.3 SE 15 20 8 11 1018.1 1017.6 0.0
29/03:00pm 24.8 19.3 -1.9 17 11.9 SE 17 24 9 13 1018.3 1017.8 0.0
29/02:30pm 24.5 19.7 -2.9 16 12.0 E 13 22 7 12 1018.7 1018.2 0.0
29/02:00pm 23.9 19.6 -1.8 18 11.4 ESE 11 20 6 11 1018.9 1018.4 0.0
29/01:30pm 23.8 19.4 0.2 21 10.9 ESE 13 20 7 11 1019.4 1019.0 0.0
29/01:00pm 22.2 16.8 -1.1 21 10.3 ESE 17 24 9 13 1020.1 1019.6 0.0
29/12:30pm 21.6 16.2 -1.0 22 10.0 E 17 26 9 14 1020.7 1020.2 0.0
29/12:00pm 20.4 14.5 -0.8 24 9.3 E 20 30 11 16 1021.4 1020.9 0.0
29/11:30am 19.9 13.3 -0.7 25 9.1 E 24 32 13 17 1021.8 1021.3 0.0
29/11:00am 18.9 12.6 -1.0 26 8.6 E 22 32 12 17 1022.2 1021.7 0.0
29/10:30am 17.3 10.8 0.5 32 7.4 E 24 35 13 19 1022.6 1022.1 0.0
29/10:00am 15.9 8.9 -0.3 33 6.9 E 26 35 14 19 1022.7 1022.2 0.0
29/09:30am 14.5 7.8 1.4 41 5.7 E 26 32 14 17 1022.8 1022.3 0.0
29/09:00am 12.4 6.2 2.0 49 4.5 ESE 24 33 13 18 1023.0 1022.5 0.0
29/08:30am 10.7 5.8 2.0 55 3.7 ESE 17 22 9 12 1023.0 1022.5 0.0
29/08:00am 8.3 3.9 2.5 67 2.4 ESE 15 19 8 10 1022.8 1022.3 0.0
29/07:30am 4.8 0.6 1.5 79 1.3 ESE 13 15 7 8 1022.6 1022.1 0.0
29/07:00am 3.9 -0.5 0.6 79 1.3 ESE 13 17 7 9 1022.5 1022.0 0.0
29/06:30am 3.9 -0.5 0.6 79 1.3 SE 13 15 7 8 1022.3 1021.8 0.0
29/06:00am 4.2 -0.5 0.7 78 1.4 SE 15 17 8 9 1022.1 1021.6 0.0
29/05:30am 5.7 2.2 1.4 74 1.7 ESE 9 13 5 7 1022.0 1021.5 0.0
29/05:00am 5.6 1.4 1.5 75 1.6 ESE 13 17 7 9 1022.0 1021.5 0.0
29/04:30am 5.9 1.3 1.4 73 1.8 ESE 15 15 8 8 1022.1 1021.6 0.0
29/04:00am 7.2 3.0 1.5 67 2.3 ESE 13 15 7 8 1022.3 1021.8 0.0
29/03:30am 8.8 4.4 2.6 65 2.6 ESE 15 19 8 10 1022.4 1021.9 0.0
29/03:00am 8.7 4.1 1.8 62 2.9 ESE 15 17 8 9 1022.7 1022.2 0.0
29/02:30am 9.2 3.9 1.9 60 3.1 ESE 19 24 10 13 1022.8 1022.3 0.0
29/02:00am 9.5 4.2 1.9 59 3.2 ESE 19 24 10 13 1023.2 1022.7 0.0
29/01:30am 9.7 4.4 1.6 57 3.4 ESE 19 22 10 12 1023.4 1022.9 0.0
29/01:00am 10.5 5.0 1.9 55 3.7 ESE 20 24 11 13 1023.4 1022.9 0.0
29/12:30am 10.7 5.2 2.0 55 3.7 ESE 20 24 11 13 1023.3 1022.8 0.0
29/12:00am 10.6 5.1 1.9 55 3.7 ESE 20 26 11 14 1023.5 1023.1 0.0
 
Date/Time
EST
Temp
°C
App
Temp
°C
Dew
Point
°C
Rel
Hum
%
Delta-T
°C
Wind Press
QNH
hPa
Press
MSL
hPa
Rain since
9am
mm
Dir  Spd
km/h
Gust
km/h
Spd
kts
Gust
kts
28/11:30pm 11.1 5.2 1.9 53 4.0 ESE 22 28 12 15 1023.7 1023.3 0.0
28/11:00pm 11.9 5.6 1.8 50 4.3 ESE 24 30 13 16 1023.7 1023.3 0.0
28/10:30pm 12.3 6.4 1.9 49 4.5 ESE 22 30 12 16 1023.8 1023.4 0.0
28/10:00pm 12.2 5.9 1.5 48 4.6 SE 24 28 13 15 1023.7 1023.3 0.0
28/09:30pm 12.5 6.1 1.2 46 4.8 SE 24 32 13 17 1023.6 1023.2 0.0
28/09:00pm 13.1 6.3 0.8 43 5.2 SE 26 33 14 18 1023.5 1023.1 0.0
28/08:30pm 14.0 7.2 0.6 40 5.7 SE 26 33 14 18 1023.2 1022.7 0.0
28/08:00pm 14.5 8.0 0.0 37 6.1 SE 24 28 13 15 1023.0 1022.5 0.0
28/07:30pm 15.0 8.4 -0.7 34 6.6 SE 24 28 13 15 1022.8 1022.3 0.0
28/07:00pm 15.9 9.2 -1.2 31 7.1 SE 24 30 13 16 1022.5 1022.0 0.0
28/06:30pm 16.5 10.6 -1.1 30 7.4 SE 20 26 11 14 1022.3 1021.8 0.0
28/06:00pm 17.8 11.8 -1.4 27 8.1 SE 20 30 11 16 1021.9 1021.4 0.0
28/05:30pm 19.4 12.2 -1.7 24 9.1 SE 26 32 14 17 1021.5 1021.0 0.0
28/05:00pm 20.5 13.0 -1.3 23 9.5 SE 28 37 15 20 1021.2 1020.7 0.0
28/04:30pm 21.1 13.6 -1.4 22 9.9 SE 28 37 15 20 1021.1 1020.6 0.0
28/04:00pm 21.3 14.2 -1.3 22 9.9 SE 26 35 14 19 1021.0 1020.5 0.0
28/03:30pm 21.3 14.6 -1.3 22 9.9 SE 24 33 13 18 1021.0 1020.5 0.0
28/03:00pm 21.4 14.4 -0.6 23 9.8 ESE 26 37 14 20 1021.1 1020.6 0.0
28/02:30pm 20.9 14.4 0.2 25 9.3 ESE 24 32 13 17 1021.3 1020.8 0.0
28/02:00pm 20.2 13.3 0.1 26 9.0 ESE 26 35 14 19 1021.6 1021.1 0.0
28/01:30pm 20.2 13.2 2.1 30 8.4 ESE 28 37 15 20 1021.9 1021.4 0.0
28/01:00pm 19.0 11.9 1.5 31 8.0 SE 28 37 15 20 1022.3 1021.8 0.0
28/12:30pm 18.1 10.4 2.4 35 7.2 SE 32 39 17 21 1022.7 1022.2 0.0
28/12:00pm 16.9 9.7 3.2 40 6.3 SE 30 39 16 21 1023.1 1022.6 0.0
28/11:30am 15.9 8.5 4.0 45 5.6 ESE 32 39 17 21 1023.6 1023.2 0.0
28/11:00am 15.9 9.1 4.9 48 5.2 ESE 30 39 16 21 1023.9 1023.5 0.0
28/10:30am 14.3 6.8 4.6 52 4.5 ESE 33 43 18 23 1024.3 1023.9 0.0
28/10:00am 13.3 5.1 5.0 57 3.9 ESE 37 50 20 27 1024.3 1023.9 0.0
28/09:30am 12.7 5.9 5.1 60 3.6 ESE 30 39 16 21 1024.3 1023.9 0.0
28/09:00am 11.8 5.8 5.2 64 3.1 ESE 26 35 14 19 1024.2 1023.8 0.0
28/08:30am 10.5 5.4 5.9 73 2.2 ESE 22 32 12 17 1023.9 1023.5 0.0
28/08:00am 8.5 2.8 4.9 78 1.6 SE 24 30 13 16 1023.6 1023.2 0.0
28/07:30am 7.6 2.7 4.9 83 1.2 SE 20 24 11 13 1023.4 1022.9 0.0
28/07:00am 7.7 2.7 4.8 82 1.3 SE 20 24 11 13 1023.0 1022.5 0.0
28/06:30am 7.4 3.0 4.7 83 1.2 SE 17 19 9 10 1022.8 1022.3 0.0
28/06:00am 7.8 4.1 4.7 81 1.4 ESE 13 15 7 8 1022.7 1022.2 0.0
28/05:30am 8.2 3.8 4.8 79 1.5 SE 17 20 9 11 1022.4 1021.9 0.0
28/05:00am 8.5 4.1 4.9 78 1.6 SE 17 22 9 12 1022.3 1021.8 0.0
28/04:30am 8.9 4.2 5.1 77 1.7 SE 19 24 10 13 1022.2 1021.7 0.0
28/04:00am 9.2 4.9 5.2 76 1.8 SE 17 20 9 11 1022.0 1021.5 0.0
28/03:30am 9.7 5.5 5.5 75 1.9 SE 17 22 9 12 1022.1 1021.6 0.0
28/03:00am 10.1 5.9 5.7 74 2.0 SE 17 26 9 14 1022.2 1021.7 0.0
28/02:30am 10.5 7.1 6.1 74 2.1 SE 13 19 7 10 1022.3 1021.8 0.0
28/02:00am 10.9 6.8 6.1 72 2.3 SE 17 20 9 11 1022.3 1021.8 0.0
28/01:30am 11.4 7.0 6.5 72 2.3 SE 19 24 10 13 1022.6 1022.1 0.0
28/01:00am 12.0 7.4 6.7 70 2.5 SE 20 26 11 14 1022.4 1021.9 0.0
28/12:30am 12.3 7.9 7.2 71 2.5 SSE 20 24 11 13 1022.2 1021.7 0.0
28/12:00am 12.6 8.4 7.5 71 2.5 SSE 19 22 10 12 1022.2 1021.7 0.0
 
Date/Time
EST
Temp
°C
App
Temp
°C
Dew
Point
°C
Rel
Hum
%
Delta-T
°C
Wind Press
QNH
hPa
Press
MSL
hPa
Rain since
9am
mm
Dir  Spd
km/h
Gust
km/h
Spd
kts
Gust
kts
27/11:30pm 13.0 8.9 7.7 70 2.6 SSE 19 22 10 12 1022.1 1021.6 0.0
27/11:00pm 13.3 9.2 7.7 69 2.8 SSE 19 22 10 12 1022.1 1021.6 0.0
27/10:30pm 13.8 9.7 7.8 67 3.0 SSE 19 22 10 12 1022.0 1021.5 0.0
27/10:00pm 14.7 10.4 8.0 64 3.4 SSE 20 26 11 14 1021.9 1021.4 0.0
27/09:30pm 14.6 11.0 8.3 66 3.2 SSE 17 22 9 12 1021.6 1021.1 0.0
27/09:00pm 14.8 11.1 8.1 64 3.4 SSE 17 20 9 11 1021.4 1020.9 0.0
27/08:30pm 15.5 11.6 8.5 63 3.6 SSE 19 22 10 12 1021.2 1020.7 0.0
27/08:00pm 16.0 12.1 8.5 61 3.8 SSE 19 22 10 12 1020.8 1020.3 0.0
27/07:30pm 16.7 12.6 8.7 59 4.1 S 20 26 11 14 1020.4 1019.9 0.0
27/07:00pm 17.5 12.6 8.6 56 4.6 S 24 30 13 16 1019.9 1019.4 0.0
27/06:30pm 18.3 13.1 8.8 54 5.0 S 26 32 14 17 1019.6 1019.1 0.0
27/06:00pm 19.4 14.2 9.0 51 5.5 S 26 32 14 17 1019.3 1018.9 0.0
27/05:30pm 20.5 15.3 8.8 47 6.2 SSE 26 35 14 19 1018.9 1018.4 0.0
27/05:00pm 21.4 15.9 9.3 46 6.5 SSE 28 33 15 18 1018.4 1017.9 0.0
27/04:30pm 22.2 16.8 9.4 44 6.9 S 28 37 15 20 1018.1 1017.6 0.0
27/04:00pm 22.7 17.3 9.5 43 7.2 S 28 37 15 20 1017.9 1017.4 0.0
27/03:30pm 23.1 17.7 9.5 42 7.4 S 28 37 15 20 1017.8 1017.3 0.0
27/03:00pm 23.9 19.6 9.5 40 7.9 SSE 22 32 12 17 1017.7 1017.2 0.0
27/02:30pm 23.6 19.4 9.9 42 7.6 S 22 32 12 17 1017.8 1017.3 0.0
27/02:00pm 23.0 19.0 10.4 45 7.0 S 22 32 12 17 1018.0 1017.5 0.0
27/01:30pm 23.1 19.5 10.5 45 7.0 SSE 20 32 11 17 1018.1 1017.6 0.0
27/01:00pm 22.0 17.5 10.2 47 6.5 S 24 35 13 19 1018.6 1018.1 0.0
27/12:30pm 21.9 18.3 10.4 48 6.3 SSE 20 33 11 18 1019.1 1018.6 0.0
27/12:00pm 22.2 17.7 11.3 50 6.1 S 26 35 14 19 1019.7 1019.2 0.0
27/11:30am 21.7 17.8 10.8 50 6.0 SSE 22 32 12 17 1019.9 1019.4 0.0
27/11:00am 21.0 16.7 10.8 52 5.6 SSE 24 35 13 19 1020.0 1019.5 0.0
27/10:30am 21.6 17.2 11.6 53 5.6 SSE 26 32 14 17 1020.1 1019.6 0.0
27/10:00am 19.8 15.8 10.5 55 5.1 SSE 22 30 12 16 1020.1 1019.6 0.0
27/09:30am 18.3 14.5 9.9 58 4.5 SSE 20 24 11 13 1020.0 1019.5 0.0
27/09:00am 17.0 13.3 9.4 61 4.0 SE 19 24 10 13 1019.7 1019.2 0.0
27/08:30am 16.1 13.5 9.3 64 3.6 ESE 13 17 7 9 1019.3 1018.9 0.0
27/08:00am 15.2 13.3 9.1 67 3.1 ESE 9 13 5 7 1019.0 1018.5 0.0
27/07:30am 13.7 11.8 9.0 73 2.4 ESE 9 11 5 6 1018.5 1018.0 0.0
27/07:00am 13.4 11.4 8.5 72 2.5 SE 9 17 5 9 1018.1 1017.6 0.0
27/06:30am 13.4 10.9 8.3 71 2.6 SSE 11 13 6 7 1017.6 1017.1 0.0
27/06:00am 14.1 11.2 8.3 68 2.9 SSE 13 19 7 10 1017.1 1016.6 0.0
27/05:30am 14.6 11.0 8.3 66 3.2 SSE 17 20 9 11 1016.5 1016.0 0.0
27/05:00am 15.4 11.9 8.6 64 3.5 S 17 20 9 11 1016.3 1015.8 0.0
27/04:30am 16.0 12.2 9.2 64 3.5 S 19 20 10 11 1016.1 1015.6 0.0
27/04:00am 15.8 12.8 9.2 65 3.4 S 15 17 8 9 1016.0 1015.5 0.0
27/03:30am 16.4 13.0 9.3 63 3.7 SSE 17 20 9 11 1015.8 1015.3 0.0
27/03:00am 17.1 12.8 9.5 61 4.0 SSE 22 28 12 15 1015.6 1015.1 0.0
27/02:30am 16.9 13.1 9.1 60 4.1 S 19 26 10 14 1015.7 1015.2 0.0
27/02:00am 16.6 13.1 8.6 59 4.1 SSW 17 20 9 11 1015.6 1015.1 0.0
27/01:30am 17.3 15.8 8.4 56 4.6 ESE 6 9 3 5 1015.2 1014.7 0.0
27/01:00am 18.1 16.0 8.4 53 5.0 ESE 9 11 5 6 1015.0 1014.4 0.0
27/12:30am 17.4 15.0 8.8 57 4.5 SE 11 13 6 7 1014.8 1014.2 0.0

Other Formats:

Comma delimited format used in spreadsheet applications
http://www.bom.gov.au/fwo/IDQ60801/IDQ60801.94341.axf

JavaScript Object Notation format (JSON) in row-major order
http://www.bom.gov.au/fwo/IDQ60801/IDQ60801.94341.json